Time;durP1;ratioP1;P1;durP2;ratioP2;P2;SDS_P1;SDS_P2;PMS_P1;PMS_P2;Temp;Humidity;BMP_temperature;BMP_pressure;BME280_temperature;BME280_humidity;BME280_pressure;Samples;Min_cycle;Max_cycle;Signal;HPM_P1;HPM_P2
2022/04/24 00:00:17;;;;;;;5.30;4.80;;;;;;;13.32;47.33;100040.28;5012321;28;20029;-67
2022/04/24 00:02:42;;;;;;;7.05;5.00;;;;;;;13.27;47.40;100036.44;5011694;28;20033;-67
2022/04/24 00:05:08;;;;;;;4.63;4.22;;;;;;;13.28;47.49;100042.69;5017295;28;20132;-67
2022/04/24 00:07:33;;;;;;;6.85;4.47;;;;;;;13.17;47.59;100033.66;5016753;28;20026;-67
2022/04/24 00:09:58;;;;;;;5.22;4.53;;;;;;;13.15;47.58;100029.56;5018208;28;20049;-68
2022/04/24 00:12:24;;;;;;;5.03;4.53;;;;;;;13.10;47.73;100035.78;5032264;28;20499;-67
2022/04/24 00:14:49;;;;;;;5.80;5.03;;;;;;;12.99;48.40;100032.19;5038896;28;20033;-67
2022/04/24 00:17:15;;;;;;;8.20;4.95;;;;;;;12.97;48.29;100030.78;5051760;28;20503;-67
2022/04/24 00:19:42;;;;;;;5.50;5.00;;;;;;;12.90;48.29;100031.84;5033805;28;20391;-67
2022/04/24 00:22:07;;;;;;;5.72;5.05;;;;;;;12.84;48.57;100030.16;5051635;28;20036;-67
2022/04/24 00:24:32;;;;;;;6.53;4.63;;;;;;;12.73;48.97;100031.19;5033719;28;20037;-67
2022/04/24 00:27:03;;;;;;;5.88;5.25;;;;;;;12.71;49.22;100027.88;5049951;28;20391;-67
2022/04/24 00:29:29;;;;;;;7.35;5.35;;;;;;;12.66;49.15;100019.72;5034539;28;20388;-67
2022/04/24 00:31:54;;;;;;;5.32;4.82;;;;;;;12.64;48.97;100022.69;5020994;28;20036;-67
2022/04/24 00:34:20;;;;;;;6.53;4.88;;;;;;;12.61;48.99;100022.41;5050180;28;20022;-67
2022/04/24 00:36:46;;;;;;;5.80;5.20;;;;;;;12.54;49.81;100017.97;5035673;28;20034;-67
2022/04/24 00:39:12;;;;;;;7.65;5.30;;;;;;;12.50;49.91;100022.31;5048043;28;20091;-67
2022/04/24 00:41:44;;;;;;;6.20;5.13;;;;;;;12.46;49.73;100020.38;5055162;28;20052;-68
2022/04/24 00:44:10;;;;;;;7.13;5.13;;;;;;;12.43;50.13;100016.25;5054751;28;20037;-67
2022/04/24 00:47:00;;;;;;;6.78;5.00;;;;;;;12.42;49.73;100022.75;5055344;28;20031;-67
2022/04/24 00:49:26;;;;;;;6.57;5.10;;;;;;;12.31;50.18;100013.72;5054619;28;20040;-67
2022/04/24 00:51:52;;;;;;;5.70;5.10;;;;;;;12.23;50.84;100012.28;5054177;28;20040;-67
2022/04/24 00:54:17;;;;;;;5.78;5.22;;;;;;;12.20;50.75;100017.41;5048318;28;20029;-67
2022/04/24 00:56:43;;;;;;;6.93;5.28;;;;;;;12.12;50.94;100010.53;5045768;28;20111;-67
2022/04/24 00:59:11;;;;;;;6.18;5.57;;;;;;;12.13;50.88;100012.19;5054757;28;20128;-67
2022/04/24 01:01:37;;;;;;;6.22;5.63;;;;;;;12.09;51.14;100016.47;5052257;28;20033;-67
2022/04/24 01:04:05;;;;;;;6.93;5.72;;;;;;;12.08;50.97;100014.84;5054934;28;20031;-67
2022/04/24 01:06:39;;;;;;;7.82;5.50;;;;;;;12.03;50.92;100009.34;5054912;28;20047;-67
2022/04/24 01:09:23;;;;;;;6.68;5.50;;;;;;;12.04;50.75;100013.72;5040838;28;20472;-67
2022/04/24 01:11:51;;;;;;;6.88;5.60;;;;;;;11.98;51.68;100015.56;5035020;28;20049;-67
2022/04/24 01:14:18;;;;;;;6.63;5.45;;;;;;;11.98;51.49;100017.44;5042226;28;20510;-68
2022/04/24 01:16:44;;;;;;;6.63;5.35;;;;;;;11.96;51.33;100017.72;5036907;28;20037;-67
2022/04/24 01:19:10;;;;;;;6.45;5.85;;;;;;;11.96;51.42;100017.72;5054161;28;20032;-67
2022/04/24 01:21:36;;;;;;;6.15;5.55;;;;;;;11.87;51.54;100020.00;5054557;28;20029;-67
2022/04/24 01:24:06;;;;;;;5.95;5.35;;;;;;;11.83;51.62;100016.16;5054307;28;20037;-67
2022/04/24 01:26:31;;;;;;;6.07;5.47;;;;;;;11.79;52.31;100023.19;5052599;28;20116;-67
2022/04/24 01:28:56;;;;;;;6.50;5.72;;;;;;;11.78;51.74;100026.97;5052852;28;20048;-67
2022/04/24 01:31:22;;;;;;;6.75;5.65;;;;;;;11.72;52.37;100027.16;5054283;28;20037;-68
2022/04/24 01:33:47;;;;;;;6.43;5.40;;;;;;;11.68;52.38;100024.97;5043516;28;20028;-68
2022/04/24 01:36:13;;;;;;;7.00;5.88;;;;;;;11.63;52.50;100024.06;5048255;28;20099;-67
2022/04/24 01:38:42;;;;;;;6.35;5.75;;;;;;;11.61;52.25;100021.63;5024212;28;20033;-67
2022/04/24 01:41:08;;;;;;;7.35;5.78;;;;;;;11.57;52.97;100019.66;5033230;28;20033;-67
2022/04/24 01:43:36;;;;;;;6.43;5.75;;;;;;;11.54;52.52;100026.41;5034362;28;20025;-67
2022/04/24 01:46:02;;;;;;;9.40;5.78;;;;;;;11.53;53.33;100020.16;5034203;28;20254;-67
2022/04/24 01:48:28;;;;;;;7.75;5.70;;;;;;;11.52;52.59;100018.53;5034245;28;20072;-67
2022/04/24 01:50:56;;;;;;;7.68;5.60;;;;;;;11.51;52.61;100016.88;5034091;28;20029;-67
2022/04/24 01:53:21;;;;;;;7.28;5.60;;;;;;;11.51;52.57;100032.31;5037290;28;20032;-68
2022/04/24 01:55:47;;;;;;;6.68;5.97;;;;;;;11.47;52.52;100015.75;5054022;28;20452;-67
2022/04/24 01:58:12;;;;;;;6.60;6.00;;;;;;;11.49;52.84;100023.63;5053442;28;20033;-67
2022/04/24 02:00:37;;;;;;;6.05;5.40;;;;;;;11.49;52.83;100024.44;5033471;28;20094;-67
2022/04/24 02:03:02;;;;;;;6.15;5.50;;;;;;;11.51;53.12;100021.47;5053531;28;20025;-67
2022/04/24 02:05:28;;;;;;;6.43;5.82;;;;;;;11.52;52.84;100018.53;5047967;28;20461;-67
2022/04/24 02:07:53;;;;;;;8.45;5.65;;;;;;;11.44;52.99;100021.66;5035197;28;20025;-68
2022/04/24 02:10:18;;;;;;;6.90;6.20;;;;;;;11.41;53.64;100016.72;5053180;28;20496;-68
2022/04/24 02:12:44;;;;;;;6.82;5.90;;;;;;;11.43;52.90;100025.44;5053182;28;20029;-67
2022/04/24 02:15:10;;;;;;;6.60;6.00;;;;;;;11.38;53.70;100017.25;5033515;28;20033;-67
2022/04/24 02:17:36;;;;;;;7.38;5.90;;;;;;;11.39;53.09;100029.72;5033878;28;20087;-67
2022/04/24 02:20:03;;;;;;;7.63;5.85;;;;;;;11.33;53.30;100022.59;5033691;28;20033;-67
2022/04/24 02:22:32;;;;;;;6.63;5.95;;;;;;;11.29;53.30;100025.00;5042426;28;20037;-67
2022/04/24 02:24:58;;;;;;;7.03;6.07;;;;;;;11.26;53.62;100020.09;5052809;28;20025;-67
2022/04/24 02:27:23;;;;;;;7.15;5.68;;;;;;;11.25;53.86;100018.44;5052153;28;20078;-68
2022/04/24 02:29:48;;;;;;;12.98;6.00;;;;;;;11.22;53.28;100020.81;5053414;28;20033;-67
2022/04/24 02:32:13;;;;;;;6.93;6.22;;;;;;;11.21;53.73;100020.00;5034693;28;20103;-67
2022/04/24 02:34:39;;;;;;;7.50;6.30;;;;;;;11.17;53.68;100011.56;5032728;28;20033;-67
2022/04/24 02:37:04;;;;;;;7.03;6.32;;;;;;;11.26;53.61;100019.25;5053232;28;20104;-67
2022/04/24 02:39:29;;;;;;;8.90;6.30;;;;;;;11.23;53.51;100022.47;5052730;28;20472;-67
2022/04/24 02:41:55;;;;;;;7.78;5.97;;;;;;;11.20;53.17;100023.75;5033282;28;20034;-67
2022/04/24 02:44:20;;;;;;;7.45;6.38;;;;;;;11.18;53.20;100024.00;5033035;28;20036;-68
2022/04/24 02:46:45;;;;;;;8.88;6.50;;;;;;;11.17;53.70;100027.81;5033110;28;20046;-67
2022/04/24 02:49:11;;;;;;;7.00;6.30;;;;;;;11.17;54.25;100024.25;5032765;28;20037;-67
2022/04/24 02:51:36;;;;;;;13.00;6.65;;;;;;;11.18;54.00;100025.91;5033058;28;20033;-67
2022/04/24 02:54:01;;;;;;;8.25;6.50;;;;;;;11.14;54.34;100027.47;5032869;28;20465;-67
2022/04/24 02:56:26;;;;;;;7.30;6.55;;;;;;;11.15;54.36;100024.50;5032806;28;20040;-67
2022/04/24 02:58:52;;;;;;;8.23;6.72;;;;;;;11.11;54.34;100026.09;5032916;28;20036;-67
2022/04/24 03:01:18;;;;;;;7.82;6.30;;;;;;;11.09;54.71;100030.94;5030062;28;20524;-67
2022/04/24 03:03:45;;;;;;;7.18;6.47;;;;;;;11.08;54.94;100029.31;5032815;28;20503;-67
2022/04/24 03:06:10;;;;;;;8.15;7.05;;;;;;;11.04;54.76;100025.44;5032858;28;20037;-67
2022/04/24 03:08:36;;;;;;;7.57;6.88;;;;;;;11.01;54.65;100030.56;5032603;28;20033;-67
2022/04/24 03:11:01;;;;;;;7.55;6.85;;;;;;;10.92;54.82;100032.84;5022086;28;20414;-67
2022/04/24 03:13:26;;;;;;;11.85;6.97;;;;;;;10.94;55.17;100028.00;5044351;28;20032;-67
2022/04/24 03:15:51;;;;;;;8.60;6.97;;;;;;;10.92;55.53;100025.53;5052649;28;20033;-68
2022/04/24 03:18:17;;;;;;;9.27;7.15;;;;;;;10.91;55.12;100028.50;5034299;28;20064;-67
2022/04/24 03:20:44;;;;;;;8.35;7.45;;;;;;;10.84;55.64;100033.25;5032673;28;20031;-67
2022/04/24 03:23:09;;;;;;;9.55;7.35;;;;;;;10.80;55.02;100027.53;5032574;28;20025;-68
2022/04/24 03:25:34;;;;;;;7.93;7.13;;;;;;;10.78;54.97;100027.78;5028692;28;20029;-67
2022/04/24 03:28:00;;;;;;;8.55;7.40;;;;;;;10.73;55.27;100033.09;5013809;28;20412;-67
2022/04/24 03:30:25;;;;;;;9.10;7.45;;;;;;;10.74;55.65;100028.50;5012428;28;20026;-68
2022/04/24 03:32:50;;;;;;;8.45;7.65;;;;;;;10.68;55.67;100030.31;5013112;28;20033;-67
2022/04/24 03:35:15;;;;;;;7.85;7.05;;;;;;;10.63;56.09;100030.22;5026477;28;20029;-67
2022/04/24 03:37:42;;;;;;;9.25;7.20;;;;;;;10.60;56.41;100036.13;5032203;28;20041;-67
2022/04/24 03:40:08;;;;;;;8.48;7.57;;;;;;;10.50;55.85;100034.06;5031567;28;20080;-67
2022/04/24 03:42:35;;;;;;;8.27;7.22;;;;;;;10.49;56.24;100042.41;5032169;28;20507;-67
2022/04/24 03:45:01;;;;;;;8.50;7.60;;;;;;;10.46;56.21;100039.16;5016158;28;20025;-67
2022/04/24 03:47:27;;;;;;;9.63;7.65;;;;;;;10.40;56.49;100029.31;5012430;28;20057;-67
2022/04/24 03:49:53;;;;;;;11.38;7.60;;;;;;;10.38;56.29;100034.13;5012770;28;20466;-67
2022/04/24 03:52:18;;;;;;;8.60;7.70;;;;;;;10.30;56.76;100034.50;5012130;28;20037;-67
2022/04/24 03:54:44;;;;;;;8.90;7.70;;;;;;;10.22;57.80;100029.47;5017277;28;20033;-67
2022/04/24 03:57:09;;;;;;;8.60;7.80;;;;;;;10.18;57.70;100037.25;5032290;28;20029;-67
2022/04/24 03:59:35;;;;;;;8.68;7.65;;;;;;;10.16;57.90;100027.75;5031459;28;20149;-67
2022/04/24 04:02:00;;;;;;;10.38;7.60;;;;;;;10.20;57.83;100029.72;5030100;28;20029;-67
2022/04/24 04:04:26;;;;;;;10.25;8.13;;;;;;;10.20;58.18;100028.91;5029345;28;20185;-67
2022/04/24 04:06:52;;;;;;;11.43;8.23;;;;;;;10.16;57.53;100033.16;5017460;28;20030;-68
2022/04/24 04:09:17;;;;;;;10.25;7.90;;;;;;;10.17;57.92;100026.69;5016356;28;20444;-67
2022/04/24 04:11:42;;;;;;;8.63;7.72;;;;;;;10.07;58.07;100030.00;5035985;28;20057;-67
2022/04/24 04:14:08;;;;;;;10.70;7.78;;;;;;;10.04;58.33;100031.34;5036023;28;20044;-67
2022/04/24 04:16:34;;;;;;;10.43;8.15;;;;;;;10.03;58.44;100034.28;5044493;28;20029;-67
2022/04/24 04:18:59;;;;;;;9.75;8.63;;;;;;;9.99;58.22;100035.81;5056011;28;20068;-67
2022/04/24 04:21:24;;;;;;;9.05;8.13;;;;;;;9.95;59.44;100038.19;5055149;28;20377;-67
2022/04/24 04:23:50;;;;;;;10.13;7.70;;;;;;;9.95;59.16;100043.59;5055855;28;20021;-67
2022/04/24 04:26:17;;;;;;;9.68;7.97;;;;;;;9.98;59.25;100031.47;5055699;28;20029;-67
2022/04/24 04:28:46;;;;;;;8.85;7.95;;;;;;;9.98;58.88;100048.53;5039892;28;20041;-67
2022/04/24 04:31:13;;;;;;;12.32;8.80;;;;;;;9.98;59.37;100048.53;5035993;28;20035;-67
2022/04/24 04:33:38;;;;;;;12.82;8.55;;;;;;;9.99;59.07;100049.31;5044666;28;20036;-67
2022/04/24 04:36:03;;;;;;;11.35;8.13;;;;;;;9.90;59.52;100041.63;5047883;28;20477;-68
2022/04/24 04:38:29;;;;;;;9.18;8.10;;;;;;;9.90;60.36;100055.13;5035309;28;20029;-67
2022/04/24 04:40:54;;;;;;;8.93;8.00;;;;;;;9.85;59.19;100051.50;5035494;28;20033;-67
2022/04/24 04:43:19;;;;;;;8.35;7.55;;;;;;;9.79;60.33;100049.75;5035101;28;20029;-67
2022/04/24 04:45:45;;;;;;;10.43;7.95;;;;;;;9.73;60.42;100057.75;5055301;28;20409;-67
2022/04/24 04:48:10;;;;;;;10.45;7.80;;;;;;;9.78;60.43;100057.03;5055354;28;20091;-67
2022/04/24 04:50:36;;;;;;;8.85;7.93;;;;;;;9.76;60.46;100065.38;5035779;28;20029;-67
2022/04/24 04:53:01;;;;;;;11.25;8.10;;;;;;;9.79;60.48;100057.88;5035263;28;20033;-67
2022/04/24 04:55:27;;;;;;;13.13;8.73;;;;;;;9.73;60.52;100063.16;5040266;28;20370;-67
2022/04/24 04:57:52;;;;;;;10.07;8.02;;;;;;;9.74;60.47;100070.19;5034889;28;20087;-67
2022/04/24 05:00:18;;;;;;;10.68;8.20;;;;;;;9.65;61.31;100060.00;5034843;28;20022;-67
2022/04/24 05:02:43;;;;;;;9.98;8.45;;;;;;;9.65;61.96;100060.81;5033006;28;20032;-67
2022/04/24 05:05:09;;;;;;;9.68;7.80;;;;;;;9.61;61.68;100075.84;5017217;28;20370;-67
2022/04/24 05:07:36;;;;;;;8.93;7.93;;;;;;;9.54;61.74;100065.19;5034515;28;20109;-67
2022/04/24 05:10:02;;;;;;;9.68;8.07;;;;;;;9.55;62.10;100076.81;5034674;28;20049;-68
2022/04/24 05:12:28;;;;;;;8.55;7.15;;;;;;;9.54;61.61;100073.31;5034557;28;20037;-67
2022/04/24 05:14:59;;;;;;;8.85;7.85;;;;;;;9.53;62.18;100079.75;5035410;28;20033;-67
2022/04/24 05:17:24;;;;;;;11.05;7.93;;;;;;;9.53;61.74;100084.34;5053396;28;20384;-67
2022/04/24 05:19:49;;;;;;;8.70;7.60;;;;;;;9.57;61.77;100086.34;5046566;28;20034;-68
2022/04/24 05:22:14;;;;;;;9.55;7.97;;;;;;;9.59;62.65;100088.78;5034591;28;20373;-67
2022/04/24 05:24:40;;;;;;;8.68;7.78;;;;;;;9.62;61.80;100092.88;5034227;28;20032;-67
2022/04/24 05:27:05;;;;;;;10.77;7.60;;;;;;;9.61;61.85;100094.78;5035586;28;20029;-67
2022/04/24 05:29:31;;;;;;;11.45;7.75;;;;;;;9.60;62.13;100095.81;5051805;28;20499;-67
2022/04/24 05:31:56;;;;;;;9.15;7.78;;;;;;;9.61;62.53;100092.06;5054530;28;20045;-67
2022/04/24 05:34:21;;;;;;;9.18;7.93;;;;;;;9.64;62.11;100096.19;5051890;28;20040;-67
2022/04/24 05:36:46;;;;;;;10.55;7.45;;;;;;;9.66;62.40;100100.31;5053827;28;20120;-67
2022/04/24 05:39:12;;;;;;;10.55;7.90;;;;;;;9.67;62.04;100099.22;5054349;28;20424;-67
2022/04/24 05:41:37;;;;;;;10.65;7.53;;;;;;;9.71;61.91;100107.69;5053610;28;20033;-67
2022/04/24 05:44:03;;;;;;;9.82;7.68;;;;;;;9.69;61.24;100105.22;5054304;28;20025;-67
2022/04/24 05:46:28;;;;;;;10.45;7.63;;;;;;;9.65;62.60;100103.25;5019162;28;20060;-67
2022/04/24 05:48:55;;;;;;;13.73;7.57;;;;;;;9.69;62.25;100105.22;5053548;28;20044;-67
2022/04/24 05:51:20;;;;;;;9.93;7.85;;;;;;;9.76;61.56;100105.91;5034217;28;20578;-67
2022/04/24 05:53:45;;;;;;;9.68;7.70;;;;;;;9.79;62.35;100111.91;5033690;28;20053;-67
2022/04/24 05:56:11;;;;;;;12.52;7.97;;;;;;;9.79;61.57;100110.00;5048874;28;20056;-67
2022/04/24 05:58:36;;;;;;;8.95;7.28;;;;;;;9.78;62.25;100112.94;5053745;28;20376;-67
2022/04/24 06:01:01;;;;;;;10.15;6.93;;;;;;;9.78;62.10;100110.25;5051364;28;20469;-67
2022/04/24 06:03:26;;;;;;;9.25;7.45;;;;;;;9.84;61.66;100101.19;5053009;28;20041;-67
2022/04/24 06:05:52;;;;;;;9.75;7.32;;;;;;;9.91;61.66;100112.69;5051913;28;20039;-67
2022/04/24 06:08:17;;;;;;;11.77;7.25;;;;;;;9.93;61.24;100115.97;5049227;28;20362;-67
2022/04/24 06:10:43;;;;;;;8.07;7.22;;;;;;;9.94;61.70;100123.03;5053140;28;20056;-67
2022/04/24 06:13:09;;;;;;;8.25;6.75;;;;;;;9.96;61.14;100126.31;5053755;28;20075;-67
2022/04/24 06:15:34;;;;;;;12.68;7.55;;;;;;;9.94;61.02;100123.84;5070114;28;20079;-67
2022/04/24 06:17:59;;;;;;;9.75;7.38;;;;;;;9.96;60.42;100126.31;5073588;28;20032;-67
2022/04/24 06:20:27;;;;;;;7.65;6.80;;;;;;;9.95;60.61;100130.09;5070816;28;20037;-68
2022/04/24 06:22:54;;;;;;;11.23;7.18;;;;;;;10.02;60.97;100128.03;5033433;28;20040;-68
2022/04/24 06:25:25;;;;;;;8.90;7.07;;;;;;;10.09;61.44;100119.81;5033486;28;20088;-67
2022/04/24 06:27:51;;;;;;;11.73;6.70;;;;;;;10.14;60.71;100119.91;5048666;28;20110;-68
2022/04/24 06:30:18;;;;;;;10.15;6.93;;;;;;;10.21;60.54;100122.50;5053404;28;20115;-67
2022/04/24 06:32:44;;;;;;;9.95;7.13;;;;;;;10.25;60.15;100121.75;5051097;28;20472;-67
2022/04/24 06:35:12;;;;;;;8.95;6.55;;;;;;;10.32;60.44;100126.22;5044126;28;20052;-67
2022/04/24 06:37:38;;;;;;;14.88;6.93;;;;;;;10.33;58.98;100134.09;5033076;28;20029;-67
2022/04/24 06:40:08;;;;;;;9.50;6.90;;;;;;;10.35;59.41;100131.97;5033264;28;20084;-67
2022/04/24 06:42:34;;;;;;;11.10;6.85;;;;;;;10.32;59.61;100135.13;5015206;28;20025;-68
2022/04/24 06:45:00;;;;;;;9.13;6.50;;;;;;;10.39;59.07;100133.16;5033159;28;20037;-67
2022/04/24 06:47:27;;;;;;;10.00;6.82;;;;;;;10.40;59.25;100132.09;5033118;28;20453;-67
2022/04/24 06:49:53;;;;;;;7.75;6.93;;;;;;;10.44;59.17;100127.81;5040175;28;20032;-67
2022/04/24 06:52:19;;;;;;;9.35;6.85;;;;;;;10.47;59.04;100142.75;5051986;28;20033;-67
2022/04/24 06:54:45;;;;;;;10.82;6.70;;;;;;;10.50;58.92;100142.28;5045095;28;20457;-67
2022/04/24 06:57:10;;;;;;;9.90;7.30;;;;;;;10.53;58.58;100143.69;5033054;28;20037;-67
2022/04/24 06:59:35;;;;;;;11.45;7.05;;;;;;;10.61;58.50;100148.69;5033135;28;20636;-67
2022/04/24 07:02:01;;;;;;;8.10;6.70;;;;;;;10.64;57.37;100140.06;5030318;28;20033;-67
2022/04/24 07:04:26;;;;;;;9.40;7.13;;;;;;;10.69;57.68;100139.34;5037323;28;20044;-67
2022/04/24 07:06:51;;;;;;;11.10;6.43;;;;;;;10.77;58.52;100139.78;5051893;28;20041;-67
2022/04/24 07:09:16;;;;;;;9.57;6.88;;;;;;;10.82;57.42;100137.19;5052291;28;20029;-67
2022/04/24 07:11:42;;;;;;;11.77;7.10;;;;;;;10.89;56.93;100130.78;5051900;28;20048;-68
2022/04/24 07:14:07;;;;;;;11.10;6.85;;;;;;;11.01;57.39;100145.06;5048778;28;20370;-67
2022/04/24 07:16:35;;;;;;;12.07;7.00;;;;;;;11.08;57.03;100140.31;5024319;28;20041;-67
2022/04/24 07:19:01;;;;;;;10.15;7.43;;;;;;;11.12;57.03;100140.63;5034935;28;20107;-67
2022/04/24 07:21:26;;;;;;;9.48;7.30;;;;;;;11.17;56.60;100141.53;5032782;28;20074;-68
2022/04/24 07:23:52;;;;;;;9.35;7.28;;;;;;;11.21;56.38;100141.88;5032431;28;20119;-78
2022/04/24 07:26:17;;;;;;;10.00;6.90;;;;;;;11.27;56.14;100143.59;5031893;28;20524;-67
2022/04/24 07:28:43;;;;;;;11.73;7.07;;;;;;;11.35;56.41;100142.34;5037954;28;20113;-69
2022/04/24 07:31:08;;;;;;;10.52;7.20;;;;;;;11.45;56.48;100139.78;5069912;28;20361;-71
2022/04/24 07:33:34;;;;;;;9.23;7.40;;;;;;;11.49;55.21;100150.97;5055864;28;20033;-69
2022/04/24 07:35:59;;;;;;;9.27;7.57;;;;;;;11.57;55.63;100147.81;5051626;28;20039;-71
2022/04/24 07:38:25;;;;;;;10.90;7.43;;;;;;;11.60;55.12;100154.66;5034698;28;20119;-68
2022/04/24 07:40:50;;;;;;;9.38;6.95;;;;;;;11.65;55.32;100152.00;5051632;28;20025;-68
2022/04/24 07:43:15;;;;;;;12.40;8.07;;;;;;;11.70;54.30;100160.22;5052323;28;20036;-72
2022/04/24 07:45:43;;;;;;;8.68;7.28;;;;;;;11.75;54.93;100151.34;5034453;28;20392;-70
2022/04/24 07:48:13;;;;;;;11.73;7.15;;;;;;;11.80;54.96;100152.22;5027931;28;20361;-73
2022/04/24 07:50:46;;;;;;;8.55;6.97;;;;;;;11.82;55.17;100152.78;5047894;28;20032;-68
2022/04/24 07:53:13;;;;;;;8.18;7.15;;;;;;;11.83;54.23;100149.00;5072302;28;20028;-74
2022/04/24 07:55:46;;;;;;;10.00;7.43;;;;;;;11.86;54.47;100159.34;5030685;28;20060;-68
2022/04/24 07:58:13;;;;;;;9.52;7.63;;;;;;;11.93;54.22;100152.97;5057844;28;20057;-68
2022/04/24 08:00:39;;;;;;;10.38;7.45;;;;;;;11.98;53.93;100156.53;5049664;28;20071;-69
2022/04/24 08:03:06;;;;;;;11.18;7.70;;;;;;;12.04;53.99;100165.56;5014187;28;20454;-72
2022/04/24 08:05:35;;;;;;;9.07;7.35;;;;;;;12.17;55.07;100159.78;5032263;28;20073;-67
2022/04/24 08:08:04;;;;;;;7.85;6.97;;;;;;;12.27;54.14;100169.91;5032271;28;20491;-67
2022/04/24 08:10:32;;;;;;;13.38;7.68;;;;;;;12.33;53.56;100165.38;5021650;28;20045;-70
2022/04/24 08:12:58;;;;;;;10.10;7.60;;;;;;;12.31;52.97;100164.81;5016047;28;20597;-67
2022/04/24 08:15:24;;;;;;;14.43;7.63;;;;;;;12.37;52.61;100172.75;5012284;28;20092;-68
2022/04/24 08:17:49;;;;;;;10.68;7.55;;;;;;;12.39;52.41;100167.06;5012028;28;20109;-66
2022/04/24 08:20:16;;;;;;;9.23;7.80;;;;;;;12.43;52.97;100168.22;5012359;28;20040;-66
2022/04/24 08:22:43;;;;;;;11.40;8.00;;;;;;;12.54;52.48;100167.25;5012320;28;20022;-67
2022/04/24 08:25:11;;;;;;;14.52;8.40;;;;;;;12.57;52.61;100161.31;4994764;28;20427;-68
2022/04/24 08:27:37;;;;;;;10.38;7.13;;;;;;;12.66;52.61;100166.28;5022185;28;20040;-67
2022/04/24 08:30:09;;;;;;;14.13;8.18;;;;;;;12.73;52.06;100166.91;5031832;28;20511;-67
2022/04/24 08:32:35;;;;;;;8.40;7.18;;;;;;;12.82;52.39;100161.81;5031783;28;20116;-66
2022/04/24 08:35:00;;;;;;;12.70;7.93;;;;;;;12.92;52.64;100165.47;5032401;28;20588;-67
2022/04/24 08:37:26;;;;;;;12.20;7.95;;;;;;;13.00;51.63;100176.91;5032338;28;20053;-68
2022/04/24 08:39:53;;;;;;;11.77;7.68;;;;;;;13.07;51.59;100167.50;5032198;28;20966;-68
2022/04/24 08:42:21;;;;;;;9.57;8.15;;;;;;;13.17;52.01;100163.25;5030742;28;20068;-65
2022/04/24 08:44:51;;;;;;;10.02;8.00;;;;;;;13.23;51.20;100179.31;5012396;28;20026;-66
2022/04/24 08:47:18;;;;;;;11.98;8.00;;;;;;;13.25;50.89;100169.00;5012543;28;20484;-65
2022/04/24 08:49:44;;;;;;;13.98;7.88;;;;;;;13.33;50.77;100169.59;5012383;28;20033;-67
2022/04/24 08:55:33;;;;;;;9.15;8.20;;;;;;;13.47;50.08;100165.41;5033114;28;20040;-70
2022/04/24 08:57:59;;;;;;;9.57;8.13;;;;;;;13.50;49.99;100174.91;5016810;28;20034;-67
2022/04/24 09:00:27;;;;;;;12.98;9.50;;;;;;;13.57;49.67;100176.34;5033080;28;20044;-70
2022/04/24 09:02:53;;;;;;;13.23;8.75;;;;;;;13.70;49.28;100185.13;5026072;28;20044;-69
2022/04/24 09:05:20;;;;;;;11.27;8.88;;;;;;;13.78;49.69;100176.47;4997487;28;20394;-67
2022/04/24 09:07:46;;;;;;;10.95;8.20;;;;;;;13.86;49.50;100173.25;5014806;28;20124;-66
2022/04/24 09:10:12;;;;;;;12.13;9.07;;;;;;;13.96;49.41;100172.47;5022905;28;20053;-74
2022/04/24 09:12:38;;;;;;;11.75;8.90;;;;;;;14.06;49.13;100185.34;5017062;28;20022;-65
2022/04/24 09:15:05;;;;;;;12.02;8.90;;;;;;;14.08;47.82;100181.25;5035765;28;20033;-68
2022/04/24 09:17:32;;;;;;;11.32;8.82;;;;;;;14.10;48.71;100181.81;5056235;28;20043;-70
2022/04/24 09:19:59;;;;;;;12.40;8.23;;;;;;;14.22;48.96;100170.72;5074671;28;20107;-68
2022/04/24 09:22:25;;;;;;;10.77;8.30;;;;;;;14.28;48.67;100175.09;5074360;28;20036;-69
2022/04/24 09:24:59;;;;;;;18.58;8.90;;;;;;;14.34;47.83;100186.78;5074480;28;20028;-66
2022/04/24 09:27:32;;;;;;;11.10;8.23;;;;;;;14.33;48.09;100172.38;5074566;28;20033;-68
2022/04/24 09:30:18;;;;;;;11.20;8.77;;;;;;;14.39;47.82;100186.84;5074340;28;20082;-66
2022/04/24 09:32:52;;;;;;;9.65;8.43;;;;;;;14.32;47.47;100168.00;5058908;28;20049;-66
2022/04/24 09:35:29;;;;;;;12.70;9.50;;;;;;;14.38;48.18;100179.75;5054479;28;20533;-68
2022/04/24 09:38:15;;;;;;;11.52;8.93;;;;;;;14.50;48.19;100174.06;5036083;28;20044;-68
2022/04/24 09:40:42;;;;;;;12.07;9.27;;;;;;;14.66;47.64;100181.22;5038025;28;20033;-67
2022/04/24 09:43:09;;;;;;;11.27;9.07;;;;;;;14.67;46.48;100177.44;5034119;28;20034;-67
2022/04/24 09:45:35;;;;;;;13.45;9.30;;;;;;;14.75;47.27;100183.41;5034354;28;20106;-66
2022/04/24 09:48:00;;;;;;;13.35;9.20;;;;;;;14.78;47.23;100167.38;5038599;28;20084;-67
2022/04/24 09:50:29;;;;;;;13.90;9.10;;;;;;;14.83;46.98;100180.97;5072022;28;20024;-67
2022/04/24 09:52:55;;;;;;;12.90;10.10;;;;;;;14.89;45.91;100182.63;5068071;28;20029;-68
2022/04/24 09:55:22;;;;;;;10.20;9.20;;;;;;;15.00;46.95;100175.28;5031593;28;20092;-68
2022/04/24 09:57:48;;;;;;;13.30;8.77;;;;;;;15.06;46.70;100179.63;5063439;28;20463;-68
2022/04/24 10:00:15;;;;;;;11.88;9.50;;;;;;;15.18;46.96;100182.09;5074052;28;20056;-68
2022/04/24 10:02:41;;;;;;;11.77;8.60;;;;;;;15.27;46.89;100184.31;5054082;28;20021;-67
2022/04/24 10:05:08;;;;;;;18.23;9.57;;;;;;;15.29;45.44;100184.84;5053852;28;20037;-73
2022/04/24 10:07:37;;;;;;;11.15;8.73;;;;;;;15.31;45.13;100180.75;5054199;28;20029;-81
2022/04/24 10:10:02;;;;;;;14.25;9.38;;;;;;;15.32;44.97;100171.47;5053793;28;20048;-68
2022/04/24 10:12:27;;;;;;;12.52;9.32;;;;;;;15.40;46.10;100179.09;5054238;28;20391;-68
2022/04/24 10:14:56;;;;;;;14.13;9.20;;;;;;;15.41;45.47;100179.91;5053432;28;20525;-67
2022/04/24 10:17:59;;;;;;;13.38;9.55;;;;;;;15.46;45.69;100182.66;5028020;28;20208;-66
2022/04/24 10:20:42;;;;;;;14.82;9.70;;;;;;;15.53;45.10;100182.38;5033736;28;20045;-67
2022/04/24 10:23:09;;;;;;;11.27;9.73;;;;;;;15.64;46.13;100185.88;5036539;28;20025;-67
2022/04/24 10:25:39;;;;;;;12.32;9.68;;;;;;;15.63;44.92;100187.00;5053350;28;20025;-67
2022/04/24 10:28:18;;;;;;;13.88;10.90;;;;;;;15.64;45.12;100178.53;5035177;28;20028;-66
2022/04/24 10:30:57;;;;;;;11.50;9.82;;;;;;;15.67;43.91;100188.91;5051515;28;20488;-68
2022/04/24 10:33:24;;;;;;;14.00;9.68;;;;;;;15.67;43.47;100197.09;5053384;28;20147;-69
2022/04/24 10:35:52;;;;;;;13.13;9.70;;;;;;;15.65;44.02;100191.06;5052707;28;20036;-70
2022/04/24 10:38:19;;;;;;;11.27;8.90;;;;;;;15.70;43.64;100188.34;5053378;28;20462;-67
2022/04/24 10:40:57;;;;;;;13.30;9.00;;;;;;;15.77;44.06;100194.34;5053408;28;20456;-68
2022/04/24 10:43:24;;;;;;;12.52;8.80;;;;;;;15.90;45.15;100189.44;5053509;28;20029;-68
2022/04/24 10:45:50;;;;;;;10.82;9.43;;;;;;;16.00;42.76;100181.19;5035190;28;20033;-67
2022/04/24 10:48:16;;;;;;;10.77;8.40;;;;;;;16.07;43.62;100184.44;5034646;28;20040;-70
2022/04/24 10:51:00;;;;;;;9.48;8.45;;;;;;;16.12;43.99;100191.81;5032999;28;20032;-69
2022/04/24 10:53:25;;;;;;;12.82;8.13;;;;;;;16.20;42.63;100191.25;5033332;28;20442;-70
2022/04/24 10:56:01;;;;;;;12.55;8.45;;;;;;;16.24;41.66;100188.75;5032684;28;20112;-68
2022/04/24 10:58:27;;;;;;;10.45;7.82;;;;;;;16.27;41.63;100202.69;5033160;28;20055;-66
2022/04/24 11:00:52;;;;;;;12.45;7.70;;;;;;;16.30;41.51;100184.91;5031121;28;20380;-69
2022/04/24 11:03:19;;;;;;;8.68;6.97;;;;;;;16.31;41.59;100181.09;5035598;28;20076;-69
2022/04/24 11:05:46;;;;;;;8.00;7.20;;;;;;;16.37;41.11;100196.34;5053194;28;20555;-70
2022/04/24 11:08:18;;;;;;;16.48;7.32;;;;;;;16.40;40.02;100198.53;5053138;28;20112;-70
2022/04/24 11:10:45;;;;;;;8.73;6.80;;;;;;;16.52;41.46;100198.22;5048514;28;20450;-67
2022/04/24 11:13:12;;;;;;;10.60;7.85;;;;;;;16.61;41.24;100201.16;5052735;28;20024;-70
2022/04/24 11:15:44;;;;;;;10.63;7.65;;;;;;;16.62;41.41;100192.69;5055081;28;20541;-69
2022/04/24 11:18:24;;;;;;;14.35;7.55;;;;;;;16.73;42.52;100189.91;5072223;28;20028;-68
2022/04/24 11:21:01;;;;;;;8.82;7.47;;;;;;;16.78;41.36;100196.13;5072144;28;20480;-72
2022/04/24 11:23:29;;;;;;;9.60;7.35;;;;;;;16.86;41.12;100192.00;5038843;28;20098;-72
2022/04/24 11:25:56;;;;;;;9.65;7.68;;;;;;;16.92;40.91;100190.88;5042660;28;20025;-70